createdAt,value
2018-09-06T00:01:03.803Z,5.20
2018-09-06T00:03:32.156Z,5.33
2018-09-06T00:06:00.514Z,5.23
2018-09-06T00:08:28.901Z,5.30
2018-09-06T00:10:57.294Z,4.90
2018-09-06T00:13:25.858Z,5.33
2018-09-06T00:15:54.205Z,5.50
2018-09-06T00:18:22.586Z,5.60
2018-09-06T00:20:50.949Z,6.00
2018-09-06T00:23:19.312Z,5.40
2018-09-06T00:25:47.690Z,5.23
2018-09-06T00:28:16.164Z,5.80
2018-09-06T00:30:44.501Z,4.97
2018-09-06T00:33:12.895Z,5.03
2018-09-06T00:35:41.327Z,5.23
2018-09-06T00:38:09.663Z,5.10
2018-09-06T00:40:38.057Z,5.10
2018-09-06T00:43:06.420Z,5.70
2018-09-06T00:45:34.877Z,5.10
2018-09-06T00:48:03.326Z,4.97
2018-09-06T00:50:38.708Z,5.00
2018-09-06T00:53:07.128Z,5.27
2018-09-06T00:55:35.637Z,5.27
2018-09-06T00:58:04.025Z,5.63
2018-09-06T01:00:32.427Z,5.50
2018-09-06T01:03:00.771Z,5.20
2018-09-06T01:05:29.204Z,5.60
2018-09-06T01:07:57.645Z,5.30
2018-09-06T01:10:26.016Z,5.67
2018-09-06T01:12:54.392Z,5.47
2018-09-06T01:15:22.864Z,5.20
2018-09-06T01:17:51.211Z,5.40
2018-09-06T01:20:19.734Z,6.37
2018-09-06T01:22:48.139Z,5.37
2018-09-06T01:25:16.500Z,6.03
2018-09-06T01:27:44.864Z,6.30
2018-09-06T01:30:13.279Z,6.17
2018-09-06T01:32:41.676Z,5.83
2018-09-06T01:35:10.039Z,6.53
2018-09-06T01:37:38.381Z,5.73
2018-09-06T01:40:06.801Z,6.00
2018-09-06T01:42:35.217Z,6.30
2018-09-06T01:45:03.652Z,6.87
2018-09-06T01:47:32.560Z,6.33
2018-09-06T01:50:00.947Z,6.80
2018-09-06T01:52:29.348Z,6.30
2018-09-06T01:54:57.732Z,6.83
2018-09-06T01:57:26.088Z,7.07
2018-09-06T01:59:54.498Z,6.63
2018-09-06T02:02:22.873Z,6.60
2018-09-06T02:04:51.244Z,6.07
2018-09-06T02:07:19.612Z,6.40
2018-09-06T02:09:48.031Z,7.13
2018-09-06T02:12:16.370Z,7.27
2018-09-06T02:14:44.765Z,6.90
2018-09-06T02:17:13.139Z,7.03
2018-09-06T02:19:41.501Z,7.50
2018-09-06T02:22:10.053Z,7.30
2018-09-06T02:24:38.396Z,7.57
2018-09-06T02:27:06.804Z,7.67
2018-09-06T02:29:35.181Z,7.53
2018-09-06T02:32:03.594Z,7.33
2018-09-06T02:34:31.952Z,7.80
2018-09-06T02:37:00.320Z,7.33
2018-09-06T02:39:28.660Z,7.07
2018-09-06T02:41:57.034Z,8.27
2018-09-06T02:44:25.498Z,8.80
2018-09-06T02:46:53.876Z,7.83
2018-09-06T02:50:25.113Z,8.97
2018-09-06T02:52:54.226Z,8.10
2018-09-06T02:55:22.928Z,8.43
2018-09-06T02:57:51.321Z,7.90
2018-09-06T03:00:30.825Z,8.17
2018-09-06T03:02:59.227Z,9.00
2018-09-06T03:05:28.129Z,8.97
2018-09-06T03:07:57.592Z,9.03
2018-09-06T03:10:29.099Z,9.07
2018-09-06T03:12:57.514Z,8.30
2018-09-06T03:15:25.905Z,8.97
2018-09-06T03:17:54.532Z,9.00
2018-09-06T03:20:22.889Z,8.33
2018-09-06T03:22:51.253Z,9.27
2018-09-06T03:25:19.625Z,9.43
2018-09-06T03:27:48.021Z,9.33
2018-09-06T03:30:16.353Z,9.67
2018-09-06T03:32:44.734Z,9.63
2018-09-06T03:35:13.063Z,9.23
2018-09-06T03:37:41.467Z,9.33
2018-09-06T03:40:09.989Z,9.50
2018-09-06T03:42:38.408Z,9.83
2018-09-06T03:45:06.751Z,9.33
2018-09-06T03:47:35.118Z,8.57
2018-09-06T03:50:03.513Z,9.10
2018-09-06T03:52:31.885Z,9.50
2018-09-06T03:55:00.302Z,8.90
2018-09-06T03:57:28.677Z,9.70
2018-09-06T03:59:57.081Z,9.37
2018-09-06T04:02:25.452Z,10.00
2018-09-06T04:04:53.797Z,9.13
2018-09-06T04:07:22.162Z,9.13
2018-09-06T04:09:50.513Z,8.67
2018-09-06T04:12:18.877Z,9.33
2018-09-06T04:14:47.273Z,9.63
2018-09-06T04:17:15.622Z,9.33
2018-09-06T04:19:44.086Z,9.37
2018-09-06T04:22:12.435Z,9.37
2018-09-06T04:24:40.815Z,9.77
2018-09-06T04:27:09.180Z,9.30
2018-09-06T04:29:37.548Z,9.13
2018-09-06T04:32:05.892Z,9.07
2018-09-06T04:34:34.265Z,9.67
2018-09-06T04:37:02.629Z,9.27
2018-09-06T04:39:30.991Z,8.97
2018-09-06T04:41:59.376Z,9.63
2018-09-06T04:44:27.722Z,9.53
2018-09-06T04:46:56.046Z,10.40
2018-09-06T04:49:24.400Z,9.47
2018-09-06T04:51:52.720Z,9.60
2018-09-06T04:54:21.069Z,8.97
2018-09-06T04:56:49.412Z,8.90
2018-09-06T04:59:17.816Z,9.00
2018-09-06T05:01:46.146Z,9.30
2018-09-06T05:04:14.523Z,8.93
2018-09-06T05:06:42.852Z,9.87
2018-09-06T05:09:11.318Z,8.60
2018-09-06T05:11:40.500Z,9.17
2018-09-06T05:14:08.860Z,9.63
2018-09-06T05:16:37.440Z,9.23
2018-09-06T05:19:06.052Z,9.03
2018-09-06T05:21:34.809Z,9.57
2018-09-06T05:24:03.278Z,9.03
2018-09-06T05:26:31.674Z,9.83
2018-09-06T05:29:00.105Z,9.13
2018-09-06T05:31:28.454Z,9.53
2018-09-06T05:33:56.834Z,9.83
2018-09-06T05:36:25.258Z,9.93
2018-09-06T05:38:53.591Z,9.73
2018-09-06T05:41:21.949Z,9.73
2018-09-06T05:43:50.584Z,10.10
2018-09-06T05:46:19.028Z,9.50
2018-09-06T05:48:47.504Z,9.80
2018-09-06T05:51:15.890Z,9.57
2018-09-06T05:53:44.258Z,9.77
2018-09-06T05:56:12.661Z,9.37
2018-09-06T05:58:41.036Z,9.83
2018-09-06T06:01:09.429Z,9.17
2018-09-06T06:03:37.799Z,9.13
2018-09-06T06:06:06.184Z,9.23
2018-09-06T06:08:42.500Z,9.30
2018-09-06T06:11:10.952Z,8.87
2018-09-06T06:13:39.528Z,9.20
2018-09-06T06:16:08.334Z,9.50
2018-09-06T06:18:36.708Z,8.60
2018-09-06T06:21:05.094Z,9.30
2018-09-06T06:23:33.502Z,8.70
2018-09-06T06:26:02.007Z,8.57
2018-09-06T06:28:30.318Z,9.10
2018-09-06T06:30:58.667Z,8.30
2018-09-06T06:33:26.995Z,8.40
2018-09-06T06:35:55.354Z,8.63
2018-09-06T06:38:23.691Z,8.60
2018-09-06T06:40:52.054Z,8.43
2018-09-06T06:43:20.393Z,9.00
2018-09-06T06:45:48.748Z,9.53
2018-09-06T06:48:17.112Z,8.97
2018-09-06T06:50:45.637Z,9.53
2018-09-06T06:53:13.999Z,9.57
2018-09-06T06:55:42.416Z,8.67
2018-09-06T06:58:10.773Z,9.80
2018-09-06T07:00:41.106Z,9.27
2018-09-06T07:03:10.281Z,10.13
2018-09-06T07:05:38.980Z,9.97
2018-09-06T07:08:07.747Z,9.80
2018-09-06T07:10:36.148Z,9.63
2018-09-06T07:13:04.717Z,10.27
2018-09-06T07:15:33.096Z,9.83
2018-09-06T07:18:01.509Z,9.53
2018-09-06T07:20:29.899Z,9.37
2018-09-06T07:22:58.287Z,9.73
2018-09-06T07:25:26.846Z,9.30
2018-09-06T07:27:55.304Z,10.47
2018-09-06T07:30:23.722Z,9.20
2018-09-06T07:32:52.077Z,10.13
2018-09-06T07:35:20.513Z,8.73
2018-09-06T07:37:48.852Z,8.60
2018-09-06T07:40:17.206Z,9.27
2018-09-06T07:42:45.603Z,9.30
2018-09-06T07:45:13.955Z,8.67
2018-09-06T07:47:42.330Z,8.97
2018-09-06T07:50:10.709Z,8.60
2018-09-06T07:52:39.073Z,7.70
2018-09-06T07:55:07.405Z,6.93
2018-09-06T07:57:35.777Z,7.83
2018-09-06T08:00:04.277Z,7.60
2018-09-06T08:02:32.691Z,7.17
2018-09-06T08:05:01.036Z,6.67
2018-09-06T08:07:29.570Z,7.10
2018-09-06T08:09:57.924Z,6.70
2018-09-06T08:12:26.310Z,7.40
2018-09-06T08:14:55.129Z,6.30
2018-09-06T08:17:23.495Z,6.40
2018-09-06T08:19:51.854Z,7.40
2018-09-06T08:22:20.262Z,7.10
2018-09-06T08:24:48.627Z,6.73
2018-09-06T08:27:17.065Z,6.90
2018-09-06T08:29:45.416Z,6.73
2018-09-06T08:32:13.817Z,6.30
2018-09-06T08:34:42.173Z,6.23
2018-09-06T08:37:10.565Z,6.00
2018-09-06T08:39:38.915Z,6.13
2018-09-06T08:42:07.304Z,6.80
2018-09-06T08:44:35.684Z,6.13
2018-09-06T08:47:04.092Z,6.87
2018-09-06T08:49:32.445Z,6.70
2018-09-06T08:52:00.892Z,6.67
2018-09-06T08:54:29.218Z,6.40
2018-09-06T08:56:57.597Z,6.10
2018-09-06T08:59:26.000Z,6.20
2018-09-06T09:01:54.374Z,6.07
2018-09-06T09:04:22.757Z,6.90
2018-09-06T09:06:51.136Z,6.10
2018-09-06T09:09:19.492Z,6.00
2018-09-06T09:11:47.880Z,6.30
2018-09-06T09:14:16.253Z,6.50
2018-09-06T09:16:44.889Z,6.77
2018-09-06T09:19:13.294Z,6.60
2018-09-06T09:21:41.815Z,6.93
2018-09-06T09:24:10.087Z,6.50
2018-09-06T09:26:38.452Z,6.03
2018-09-06T09:29:06.844Z,5.90
2018-09-06T09:31:35.197Z,6.43
2018-09-06T09:34:03.621Z,7.13
2018-09-06T09:36:31.990Z,6.60
2018-09-06T09:39:00.481Z,7.57
2018-09-06T09:41:28.877Z,6.63
2018-09-06T09:43:57.263Z,7.10
2018-09-06T09:51:21.911Z,6.67
2018-09-06T09:53:50.323Z,7.17
2018-09-06T09:56:18.722Z,7.00
2018-09-06T09:58:47.157Z,6.53
2018-09-06T10:01:15.514Z,6.17
2018-09-06T10:03:49.104Z,7.30
2018-09-06T10:06:21.786Z,6.90
2018-09-06T10:08:55.785Z,7.03
2018-09-06T10:11:24.852Z,6.07
2018-09-06T10:13:53.248Z,5.90
2018-09-06T10:16:21.643Z,6.60
2018-09-06T10:18:50.301Z,5.77
2018-09-06T10:21:18.667Z,6.77
2018-09-06T10:23:47.060Z,6.27
2018-09-06T10:26:15.436Z,6.27
2018-09-06T10:28:43.829Z,6.03
2018-09-06T10:31:12.203Z,6.33
2018-09-06T10:33:40.604Z,6.08
2018-09-06T10:36:08.971Z,6.07
2018-09-06T10:38:37.388Z,6.05
2018-09-06T10:41:06.044Z,6.05
2018-09-06T10:43:34.444Z,5.97
2018-09-06T10:46:02.826Z,5.97
2018-09-06T10:48:31.247Z,6.10
2018-09-06T10:50:59.725Z,6.35
2018-09-06T10:53:28.152Z,6.25
2018-09-06T10:55:56.540Z,5.92
2018-09-06T10:58:24.964Z,6.08
2018-09-06T11:00:58.756Z,6.60
2018-09-06T11:03:27.193Z,6.15
2018-09-06T11:05:55.601Z,6.03
2018-09-06T11:08:24.009Z,6.75
2018-09-06T11:10:52.364Z,6.50
2018-09-06T11:13:20.748Z,6.05
2018-09-06T11:15:49.128Z,6.15
2018-09-06T11:18:17.492Z,6.42
2018-09-06T11:20:45.880Z,6.30
2018-09-06T11:23:14.248Z,6.78
2018-09-06T11:25:42.661Z,6.95
2018-09-06T11:28:11.025Z,6.90
2018-09-06T11:30:39.440Z,6.60
2018-09-06T11:33:07.803Z,6.10
2018-09-06T11:35:36.355Z,6.85
2018-09-06T11:38:04.738Z,6.35
2018-09-06T11:40:33.216Z,6.85
2018-09-06T11:43:01.489Z,6.45
2018-09-06T11:45:30.080Z,7.20
2018-09-06T11:47:58.494Z,6.50
2018-09-06T11:50:26.912Z,6.50
2018-09-06T11:52:55.258Z,6.65
2018-09-06T11:55:23.653Z,7.50
2018-09-06T11:57:52.020Z,6.95
2018-09-06T12:00:20.465Z,6.90
2018-09-06T12:02:48.876Z,6.47
2018-09-06T12:05:17.306Z,6.17
2018-09-06T12:07:45.698Z,6.95
2018-09-06T12:10:14.123Z,6.58
2018-09-06T12:12:42.541Z,6.28
2018-09-06T12:15:10.949Z,6.42
2018-09-06T12:17:39.349Z,6.95
2018-09-06T12:20:07.795Z,6.97
2018-09-06T12:22:36.212Z,7.53
2018-09-06T12:25:04.812Z,7.20
2018-09-06T12:27:33.231Z,7.85
2018-09-06T12:30:01.668Z,9.60
2018-09-06T12:32:30.123Z,9.88
2018-09-06T12:34:58.517Z,9.80
2018-09-06T12:37:27.256Z,11.20
2018-09-06T12:39:55.733Z,9.68
2018-09-06T12:42:24.609Z,8.83
2018-09-06T12:44:52.997Z,9.50
2018-09-06T12:47:21.381Z,9.70
2018-09-06T12:49:49.809Z,8.80
2018-09-06T12:52:18.161Z,9.25
2018-09-06T12:54:46.584Z,9.90
2018-09-06T12:57:15.024Z,10.40
2018-09-06T12:59:43.720Z,9.73
2018-09-06T13:02:12.134Z,10.48
2018-09-06T13:04:40.492Z,11.83
2018-09-06T13:07:08.908Z,10.38
2018-09-06T13:09:37.261Z,11.05
2018-09-06T13:12:05.696Z,10.88
2018-09-06T13:14:34.057Z,10.93
2018-09-06T13:17:02.571Z,10.67
2018-09-06T13:19:30.986Z,11.78
2018-09-06T13:21:59.380Z,11.40
2018-09-06T13:24:28.113Z,12.73
2018-09-06T13:26:56.487Z,12.73
2018-09-06T13:29:24.849Z,11.77
2018-09-06T13:31:53.224Z,12.90
2018-09-06T13:34:21.585Z,12.33
2018-09-06T13:36:49.969Z,12.10
2018-09-06T13:39:18.312Z,13.27
2018-09-06T13:41:46.709Z,12.50
2018-09-06T13:44:15.860Z,12.90
2018-09-06T13:46:44.586Z,13.63
2018-09-06T13:49:13.026Z,13.87
2018-09-06T13:51:41.442Z,13.47
2018-09-06T13:54:09.925Z,12.87
2018-09-06T13:56:38.346Z,12.67
2018-09-06T13:59:06.793Z,12.30
2018-09-06T14:01:35.391Z,11.83
2018-09-06T14:04:03.830Z,12.47
2018-09-06T14:06:32.614Z,11.73
2018-09-06T14:09:00.972Z,11.50
2018-09-06T14:11:29.396Z,11.80
2018-09-06T14:13:58.309Z,12.20
2018-09-06T14:16:27.002Z,11.53
2018-09-06T14:18:55.320Z,12.03
2018-09-06T14:21:23.711Z,12.20
2018-09-06T14:23:52.184Z,12.00
2018-09-06T14:26:20.704Z,12.03
2018-09-06T14:28:49.134Z,12.63
2018-09-06T14:31:17.616Z,12.17
2018-09-06T14:33:46.012Z,11.63
2018-09-06T14:36:14.492Z,12.70
2018-09-06T14:38:43.070Z,12.60
2018-09-06T14:41:11.448Z,11.53
2018-09-06T14:43:39.964Z,12.80
2018-09-06T14:46:08.498Z,12.10
2018-09-06T14:48:37.470Z,11.50
2018-09-06T14:51:05.881Z,12.37
2018-09-06T14:53:34.264Z,12.03
2018-09-06T14:56:02.695Z,11.57
2018-09-06T14:58:31.071Z,11.90
2018-09-06T15:00:59.430Z,12.00
2018-09-06T15:03:27.811Z,12.77
2018-09-06T15:05:56.157Z,11.50
2018-09-06T15:08:24.533Z,10.87
2018-09-06T15:10:52.905Z,10.33
2018-09-06T15:13:21.284Z,10.43
2018-09-06T15:15:49.705Z,10.63
2018-09-06T15:18:18.123Z,11.77
2018-09-06T15:20:46.520Z,10.50
2018-09-06T15:23:14.926Z,10.73
2018-09-06T15:25:43.481Z,11.13
2018-09-06T15:28:11.950Z,10.80
2018-09-06T15:30:40.308Z,10.20
2018-09-06T15:33:08.710Z,10.93
2018-09-06T15:35:37.428Z,10.93
2018-09-06T15:38:06.426Z,9.90
2018-09-06T15:40:34.815Z,10.27
2018-09-06T15:43:03.203Z,10.67
2018-09-06T15:45:31.572Z,11.00
2018-09-06T15:47:59.988Z,12.07
2018-09-06T15:50:28.385Z,12.17
2018-09-06T15:52:56.796Z,11.37
2018-09-06T15:55:25.173Z,11.00
2018-09-06T15:57:53.580Z,11.07
2018-09-06T16:00:22.014Z,11.40
2018-09-06T16:02:50.751Z,11.33
2018-09-06T16:05:19.116Z,10.77
2018-09-06T16:07:47.516Z,12.10
2018-09-06T16:10:16.072Z,11.97
2018-09-06T16:12:44.508Z,11.73
2018-09-06T16:15:12.853Z,11.03
2018-09-06T16:17:41.239Z,12.10
2018-09-06T16:20:09.654Z,12.20
2018-09-06T16:22:38.094Z,11.70
2018-09-06T16:25:06.456Z,12.03
2018-09-06T16:27:34.877Z,10.90
2018-09-06T16:30:03.314Z,11.60
2018-09-06T16:32:31.673Z,10.63
2018-09-06T16:35:00.058Z,9.90
2018-09-06T16:37:28.446Z,9.43
2018-09-06T16:39:56.825Z,9.43
2018-09-06T16:42:25.194Z,8.57
2018-09-06T16:44:53.563Z,8.83
2018-09-06T16:47:21.906Z,9.60
2018-09-06T16:52:40.441Z,9.60
2018-09-06T16:55:08.834Z,9.27
2018-09-06T16:57:37.176Z,9.03
2018-09-06T17:00:05.584Z,9.93
2018-09-06T17:02:33.948Z,10.40
2018-09-06T17:05:02.371Z,9.73
2018-09-06T17:07:30.722Z,8.93
2018-09-06T17:09:59.094Z,9.77
2018-09-06T17:12:27.445Z,9.17
2018-09-06T17:14:55.823Z,9.97
2018-09-06T17:17:24.188Z,9.63
2018-09-06T17:19:52.551Z,10.40
2018-09-06T17:22:20.893Z,10.23
2018-09-06T17:24:49.260Z,11.37
2018-09-06T17:27:17.626Z,10.00
2018-09-06T17:29:45.999Z,10.23
2018-09-06T17:32:14.393Z,10.27
2018-09-06T17:34:42.720Z,11.40
2018-09-06T17:37:11.048Z,10.40
2018-09-06T17:39:39.433Z,10.70
2018-09-06T17:42:07.876Z,10.20
2018-09-06T17:44:36.351Z,10.47
2018-09-06T17:47:04.699Z,10.90
2018-09-06T17:49:33.056Z,10.33
2018-09-06T17:52:01.389Z,10.67
2018-09-06T17:54:29.791Z,11.43
2018-09-06T17:56:58.168Z,10.67
2018-09-06T17:59:26.549Z,10.93
2018-09-06T18:01:54.950Z,10.60
2018-09-06T18:04:23.320Z,10.03
2018-09-06T18:06:51.849Z,9.17
2018-09-06T18:09:20.212Z,8.93
2018-09-06T18:11:48.540Z,8.17
2018-09-06T18:14:16.911Z,8.20
2018-09-06T18:16:45.282Z,7.50
2018-09-06T18:19:13.665Z,7.20
2018-09-06T18:21:42.002Z,7.43
2018-09-06T18:24:10.406Z,7.10
2018-09-06T18:26:38.747Z,7.00
2018-09-06T18:29:08.050Z,7.00
2018-09-06T18:31:36.384Z,6.57
2018-09-06T18:34:04.746Z,6.60
2018-09-06T18:36:33.095Z,6.47
2018-09-06T18:39:01.435Z,6.17
2018-09-06T18:41:29.816Z,6.07
2018-09-06T18:43:58.204Z,5.90
2018-09-06T18:46:26.542Z,6.00
2018-09-06T18:48:54.872Z,5.90
2018-09-06T18:51:23.267Z,6.13
2018-09-06T18:53:51.598Z,6.10
2018-09-06T18:56:19.985Z,5.87
2018-09-06T18:58:48.337Z,6.13
2018-09-06T19:01:16.697Z,5.97
2018-09-06T19:03:45.036Z,6.27
2018-09-06T19:06:13.391Z,5.50
2018-09-06T19:08:44.974Z,6.07
2018-09-06T19:11:13.372Z,5.87
2018-09-06T19:13:41.901Z,6.40
2018-09-06T19:16:10.340Z,5.90
2018-09-06T19:18:38.690Z,6.00
2018-09-06T19:21:07.065Z,5.53
2018-09-06T19:23:35.428Z,5.40
2018-09-06T19:26:03.825Z,6.17
2018-09-06T19:28:32.168Z,5.80
2018-09-06T19:31:00.749Z,6.20
2018-09-06T19:33:29.128Z,6.03
2018-09-06T19:35:57.534Z,5.90
2018-09-06T19:38:25.848Z,5.63
2018-09-06T19:40:54.219Z,5.90
2018-09-06T19:43:22.562Z,5.63
2018-09-06T19:45:50.941Z,6.07
2018-09-06T19:48:19.287Z,5.70
2018-09-06T19:50:47.645Z,5.97
2018-09-06T19:53:15.992Z,5.90
2018-09-06T19:55:44.642Z,5.90
2018-09-06T19:58:12.992Z,5.47
2018-09-06T20:00:41.412Z,6.23
2018-09-06T20:03:09.769Z,6.30
2018-09-06T20:05:38.133Z,6.20
2018-09-06T20:08:06.568Z,6.60
2018-09-06T20:10:34.906Z,6.40
2018-09-06T20:13:03.292Z,6.20
2018-09-06T20:15:31.673Z,6.67
2018-09-06T20:18:00.078Z,6.90
2018-09-06T20:20:28.453Z,6.50
2018-09-06T20:22:56.837Z,6.53
2018-09-06T20:25:25.149Z,6.43
2018-09-06T20:27:53.599Z,6.37
2018-09-06T20:30:22.069Z,6.57
2018-09-06T20:32:50.537Z,7.53
2018-09-06T20:35:18.880Z,6.43
2018-09-06T20:37:47.258Z,6.73
2018-09-06T20:40:15.607Z,7.10
2018-09-06T20:42:43.986Z,6.90
2018-09-06T20:45:12.356Z,7.27
2018-09-06T20:47:40.765Z,7.67
2018-09-06T20:50:09.110Z,8.93
2018-09-06T20:52:37.494Z,7.57
2018-09-06T20:55:05.911Z,7.40
2018-09-06T20:57:34.241Z,7.60
2018-09-06T21:00:02.808Z,7.63
2018-09-06T21:02:37.213Z,8.83
2018-09-06T21:05:06.468Z,8.97
2018-09-06T21:07:34.857Z,8.90
2018-09-06T21:10:03.906Z,9.60
2018-09-06T21:12:32.367Z,9.70
2018-09-06T21:15:01.176Z,9.17
2018-09-06T21:17:29.561Z,10.60
2018-09-06T21:19:57.908Z,10.13
2018-09-06T21:22:26.326Z,9.47
2018-09-06T21:24:54.657Z,9.57
2018-09-06T21:27:23.406Z,10.57
2018-09-06T21:29:51.741Z,9.23
2018-09-06T21:32:20.132Z,10.30
2018-09-06T21:34:48.501Z,10.03
2018-09-06T21:37:16.929Z,9.20
2018-09-06T21:39:45.415Z,11.27
2018-09-06T21:42:13.785Z,12.93
2018-09-06T21:44:42.140Z,11.57
2018-09-06T21:47:10.512Z,12.70
2018-09-06T21:49:38.852Z,12.27
2018-09-06T21:52:07.230Z,12.30
2018-09-06T21:54:35.608Z,12.47
2018-09-06T21:57:03.989Z,14.60
2018-09-06T21:59:32.329Z,15.20
2018-09-06T22:02:00.716Z,15.70
2018-09-06T22:04:29.402Z,15.70
2018-09-06T22:06:57.777Z,14.07
2018-09-06T22:09:26.138Z,15.50
2018-09-06T22:11:54.504Z,15.67
2018-09-06T22:14:22.867Z,16.57
2018-09-06T22:16:51.282Z,18.30
2018-09-06T22:19:19.637Z,18.07
2018-09-06T22:21:47.993Z,16.67
2018-09-06T22:24:16.372Z,17.57
2018-09-06T22:26:44.726Z,19.43
2018-09-06T22:29:13.132Z,23.00
2018-09-06T22:31:41.480Z,20.27
2018-09-06T22:34:09.835Z,21.10
2018-09-06T22:36:38.212Z,25.63
2018-09-06T22:39:08.371Z,24.90
2018-09-06T22:41:36.731Z,25.97
2018-09-06T22:44:05.103Z,26.93
2018-09-06T22:46:33.445Z,26.70
2018-09-06T22:49:01.921Z,26.80
2018-09-06T22:51:30.202Z,28.37
2018-09-06T22:53:58.601Z,29.47
2018-09-06T22:56:26.947Z,28.73
2018-09-06T22:58:55.343Z,29.23
2018-09-06T23:01:23.717Z,29.20
2018-09-06T23:03:52.322Z,29.77
2018-09-06T23:06:20.857Z,30.33
2018-09-06T23:08:49.241Z,31.80
2018-09-06T23:11:17.598Z,32.60
2018-09-06T23:13:45.968Z,31.17
2018-09-06T23:16:14.351Z,31.83
2018-09-06T23:18:42.735Z,33.47
2018-09-06T23:21:11.092Z,32.83
2018-09-06T23:23:39.471Z,32.23
2018-09-06T23:26:07.948Z,34.30
2018-09-06T23:28:36.367Z,34.07
2018-09-06T23:31:04.890Z,34.57
2018-09-06T23:33:33.281Z,35.40
2018-09-06T23:36:01.640Z,36.30
2018-09-06T23:38:30.036Z,36.50
2018-09-06T23:40:58.389Z,36.50
2018-09-06T23:43:27.472Z,39.10
2018-09-06T23:45:57.984Z,37.20
2018-09-06T23:48:29.461Z,37.67
2018-09-06T23:50:58.630Z,38.60
2018-09-06T23:53:27.955Z,38.80
2018-09-06T23:55:56.350Z,36.80
2018-09-06T23:58:24.917Z,39.33
